sensor_id;sensor_type;location;lat;lon;timestamp;pressure;altitude;pressure_sealevel;temperature;humidity
55517;BME280;41724;51.176;-0.708;2024-02-23T00:00:16;98260.89;;;3.97;88.07
55517;BME280;41724;51.176;-0.708;2024-02-23T00:02:44;98244.82;;;4.14;90.83
55517;BME280;41724;51.176;-0.708;2024-02-23T00:05:11;98241.08;;;3.93;91.50
55517;BME280;41724;51.176;-0.708;2024-02-23T00:07:38;98241.46;;;4.04;93.14
55517;BME280;41724;51.176;-0.708;2024-02-23T00:10:07;98236.03;;;4.26;89.88
55517;BME280;41724;51.176;-0.708;2024-02-23T00:12:34;98233.58;;;3.71;92.19
55517;BME280;41724;51.176;-0.708;2024-02-23T00:15:01;98233.45;;;4.09;92.27
55517;BME280;41724;51.176;-0.708;2024-02-23T00:17:28;98227.57;;;3.52;95.63
55517;BME280;41724;51.176;-0.708;2024-02-23T00:19:55;98215.98;;;4.69;92.23
55517;BME280;41724;51.176;-0.708;2024-02-23T00:22:23;98211.56;;;4.10;91.87
55517;BME280;41724;51.176;-0.708;2024-02-23T00:24:50;98201.82;;;4.32;92.97
55517;BME280;41724;51.176;-0.708;2024-02-23T00:27:17;98198.99;;;4.30;90.85
55517;BME280;41724;51.176;-0.708;2024-02-23T00:29:44;98198.15;;;4.33;91.75
55517;BME280;41724;51.176;-0.708;2024-02-23T00:32:12;98194.59;;;3.70;93.35
55517;BME280;41724;51.176;-0.708;2024-02-23T00:34:39;98190.41;;;4.04;92.62
55517;BME280;41724;51.176;-0.708;2024-02-23T00:37:06;98187.37;;;4.23;93.00
55517;BME280;41724;51.176;-0.708;2024-02-23T00:39:33;98181.79;;;4.01;94.53
55517;BME280;41724;51.176;-0.708;2024-02-23T00:42:01;98179.84;;;3.83;95.62
55517;BME280;41724;51.176;-0.708;2024-02-23T00:44:28;98175.71;;;4.18;91.89
55517;BME280;41724;51.176;-0.708;2024-02-23T00:46:55;98176.59;;;4.05;93.74
55517;BME280;41724;51.176;-0.708;2024-02-23T00:49:23;98171.19;;;3.86;95.28
55517;BME280;41724;51.176;-0.708;2024-02-23T00:51:50;98171.66;;;4.63;91.64
55517;BME280;41724;51.176;-0.708;2024-02-23T00:54:17;98175.63;;;5.18;88.60
55517;BME280;41724;51.176;-0.708;2024-02-23T00:56:45;98165.79;;;4.52;89.10
55517;BME280;41724;51.176;-0.708;2024-02-23T00:59:12;98161.00;;;5.32;87.97
55517;BME280;41724;51.176;-0.708;2024-02-23T01:01:39;98165.79;;;5.25;87.62
55517;BME280;41724;51.176;-0.708;2024-02-23T01:04:06;98167.10;;;4.30;91.28
55517;BME280;41724;51.176;-0.708;2024-02-23T01:06:34;98154.90;;;5.41;86.71
55517;BME280;41724;51.176;-0.708;2024-02-23T01:09:01;98150.55;;;5.78;85.50
55517;BME280;41724;51.176;-0.708;2024-02-23T01:11:28;98147.83;;;6.20;83.87
55517;BME280;41724;51.176;-0.708;2024-02-23T01:13:55;98140.85;;;6.28;82.11
55517;BME280;41724;51.176;-0.708;2024-02-23T01:16:22;98134.28;;;5.55;82.46
55517;BME280;41724;51.176;-0.708;2024-02-23T01:18:49;98133.46;;;5.41;84.61
55517;BME280;41724;51.176;-0.708;2024-02-23T01:21:17;98134.35;;;4.74;85.67
55517;BME280;41724;51.176;-0.708;2024-02-23T01:23:44;98134.23;;;5.42;84.87
55517;BME280;41724;51.176;-0.708;2024-02-23T01:26:11;98135.32;;;5.74;85.62
55517;BME280;41724;51.176;-0.708;2024-02-23T01:28:38;98128.99;;;5.93;83.85
55517;BME280;41724;51.176;-0.708;2024-02-23T01:31:08;98125.40;;;5.39;85.17
55517;BME280;41724;51.176;-0.708;2024-02-23T01:33:36;98114.37;;;6.34;83.27
55517;BME280;41724;51.176;-0.708;2024-02-23T01:36:04;98116.13;;;6.61;82.04
55517;BME280;41724;51.176;-0.708;2024-02-23T01:38:32;98113.91;;;6.83;80.65
55517;BME280;41724;51.176;-0.708;2024-02-23T01:40:59;98112.17;;;6.45;81.81
55517;BME280;41724;51.176;-0.708;2024-02-23T01:43:27;98117.79;;;7.28;79.52
55517;BME280;41724;51.176;-0.708;2024-02-23T01:45:54;98109.56;;;6.75;79.57
55517;BME280;41724;51.176;-0.708;2024-02-23T01:48:21;98105.08;;;7.44;78.66
55517;BME280;41724;51.176;-0.708;2024-02-23T01:50:48;98102.03;;;7.49;77.54
55517;BME280;41724;51.176;-0.708;2024-02-23T01:53:16;98091.34;;;7.89;76.10
55517;BME280;41724;51.176;-0.708;2024-02-23T01:55:45;98084.70;;;7.92;74.81
55517;BME280;41724;51.176;-0.708;2024-02-23T01:58:13;98078.58;;;8.07;75.13
55517;BME280;41724;51.176;-0.708;2024-02-23T02:00:40;98074.86;;;8.34;74.57
55517;BME280;41724;51.176;-0.708;2024-02-23T02:03:08;98067.17;;;8.23;73.61
55517;BME280;41724;51.176;-0.708;2024-02-23T02:05:36;98062.66;;;8.33;74.74
55517;BME280;41724;51.176;-0.708;2024-02-23T02:08:04;98070.42;;;8.42;73.75
55517;BME280;41724;51.176;-0.708;2024-02-23T02:10:32;98074.24;;;8.59;72.84
55517;BME280;41724;51.176;-0.708;2024-02-23T02:13:03;98073.10;;;8.68;73.84
55517;BME280;41724;51.176;-0.708;2024-02-23T02:15:30;98078.26;;;7.56;75.55
55517;BME280;41724;51.176;-0.708;2024-02-23T02:17:57;98077.24;;;6.78;80.44
55517;BME280;41724;51.176;-0.708;2024-02-23T02:20:25;98068.45;;;5.75;86.74
55517;BME280;41724;51.176;-0.708;2024-02-23T02:22:54;98063.93;;;5.91;88.55
55517;BME280;41724;51.176;-0.708;2024-02-23T02:25:22;98056.56;;;5.76;88.18
55517;BME280;41724;51.176;-0.708;2024-02-23T02:27:49;98048.07;;;5.29;89.28
55517;BME280;41724;51.176;-0.708;2024-02-23T02:30:16;98046.10;;;5.86;90.69
55517;BME280;41724;51.176;-0.708;2024-02-23T02:32:43;98034.66;;;5.64;89.96
55517;BME280;41724;51.176;-0.708;2024-02-23T02:35:11;98029.54;;;5.83;88.53
55517;BME280;41724;51.176;-0.708;2024-02-23T02:37:39;98033.22;;;6.60;87.73
55517;BME280;41724;51.176;-0.708;2024-02-23T02:40:07;98038.47;;;5.86;87.05
55517;BME280;41724;51.176;-0.708;2024-02-23T02:42:34;98041.18;;;4.51;95.22
55517;BME280;41724;51.176;-0.708;2024-02-23T02:45:01;98032.85;;;4.80;97.05
55517;BME280;41724;51.176;-0.708;2024-02-23T02:47:28;98021.48;;;4.95;98.34
55517;BME280;41724;51.176;-0.708;2024-02-23T02:49:55;98019.53;;;4.89;99.55
55517;BME280;41724;51.176;-0.708;2024-02-23T02:52:23;98019.38;;;5.03;97.54
55517;BME280;41724;51.176;-0.708;2024-02-23T02:54:50;98012.52;;;5.31;97.74
55517;BME280;41724;51.176;-0.708;2024-02-23T02:57:17;98012.47;;;5.94;95.23
55517;BME280;41724;51.176;-0.708;2024-02-23T02:59:45;98005.66;;;5.61;94.05
55517;BME280;41724;51.176;-0.708;2024-02-23T03:02:12;97997.33;;;5.57;92.91
55517;BME280;41724;51.176;-0.708;2024-02-23T03:04:39;97990.58;;;5.41;95.42
55517;BME280;41724;51.176;-0.708;2024-02-23T03:07:06;97986.77;;;4.89;97.30
55517;BME280;41724;51.176;-0.708;2024-02-23T03:09:34;97988.46;;;5.19;96.87
55517;BME280;41724;51.176;-0.708;2024-02-23T03:12:01;97995.71;;;4.64;99.13
55517;BME280;41724;51.176;-0.708;2024-02-23T03:14:28;98002.83;;;4.43;100.00
55517;BME280;41724;51.176;-0.708;2024-02-23T03:16:56;97995.73;;;4.62;100.00
55517;BME280;41724;51.176;-0.708;2024-02-23T03:19:23;97987.20;;;4.67;100.00
55517;BME280;41724;51.176;-0.708;2024-02-23T03:21:50;97976.44;;;5.00;99.59
55517;BME280;41724;51.176;-0.708;2024-02-23T03:24:17;97974.13;;;4.84;100.00
55517;BME280;41724;51.176;-0.708;2024-02-23T03:26:45;97978.54;;;4.49;100.00
55517;BME280;41724;51.176;-0.708;2024-02-23T03:29:12;97977.03;;;4.20;100.00
55517;BME280;41724;51.176;-0.708;2024-02-23T03:31:40;97972.14;;;4.19;100.00
55517;BME280;41724;51.176;-0.708;2024-02-23T03:34:07;97974.85;;;3.98;100.00
55517;BME280;41724;51.176;-0.708;2024-02-23T03:36:36;97987.90;;;3.74;100.00
55517;BME280;41724;51.176;-0.708;2024-02-23T03:39:03;97992.73;;;3.71;100.00
55517;BME280;41724;51.176;-0.708;2024-02-23T03:41:30;97982.92;;;4.11;100.00
55517;BME280;41724;51.176;-0.708;2024-02-23T03:43:57;97979.49;;;4.22;100.00
55517;BME280;41724;51.176;-0.708;2024-02-23T03:46:24;97978.90;;;4.04;100.00
55517;BME280;41724;51.176;-0.708;2024-02-23T03:48:51;97986.31;;;4.26;100.00
55517;BME280;41724;51.176;-0.708;2024-02-23T03:51:19;97994.06;;;3.98;100.00
55517;BME280;41724;51.176;-0.708;2024-02-23T03:53:46;97993.01;;;3.99;100.00
55517;BME280;41724;51.176;-0.708;2024-02-23T03:56:13;97989.14;;;3.23;100.00
55517;BME280;41724;51.176;-0.708;2024-02-23T03:58:41;97991.89;;;3.70;100.00
55517;BME280;41724;51.176;-0.708;2024-02-23T04:01:08;98001.03;;;3.62;100.00
55517;BME280;41724;51.176;-0.708;2024-02-23T04:03:35;98001.88;;;4.29;100.00
55517;BME280;41724;51.176;-0.708;2024-02-23T04:06:03;98002.33;;;4.56;100.00
55517;BME280;41724;51.176;-0.708;2024-02-23T04:08:30;98003.00;;;5.06;98.80
55517;BME280;41724;51.176;-0.708;2024-02-23T04:10:57;97999.09;;;5.17;95.67
55517;BME280;41724;51.176;-0.708;2024-02-23T04:13:24;97994.67;;;4.97;96.29
55517;BME280;41724;51.176;-0.708;2024-02-23T04:15:51;98005.41;;;4.30;97.22
55517;BME280;41724;51.176;-0.708;2024-02-23T04:18:19;98003.73;;;4.49;95.92
55517;BME280;41724;51.176;-0.708;2024-02-23T04:20:46;98007.89;;;4.41;98.95
55517;BME280;41724;51.176;-0.708;2024-02-23T04:23:13;98000.71;;;4.45;97.47
55517;BME280;41724;51.176;-0.708;2024-02-23T04:25:41;98010.56;;;3.83;99.41
55517;BME280;41724;51.176;-0.708;2024-02-23T04:28:08;98011.39;;;3.90;98.28
55517;BME280;41724;51.176;-0.708;2024-02-23T04:30:35;98014.85;;;4.20;97.66
55517;BME280;41724;51.176;-0.708;2024-02-23T04:33:02;98022.03;;;4.43;95.00
55517;BME280;41724;51.176;-0.708;2024-02-23T04:35:30;98031.18;;;4.47;97.21
55517;BME280;41724;51.176;-0.708;2024-02-23T04:37:57;98032.83;;;4.22;97.81
55517;BME280;41724;51.176;-0.708;2024-02-23T04:40:24;98036.04;;;3.95;96.06
55517;BME280;41724;51.176;-0.708;2024-02-23T04:42:51;98043.75;;;4.10;96.16
55517;BME280;41724;51.176;-0.708;2024-02-23T04:45:19;98044.74;;;4.77;94.25
55517;BME280;41724;51.176;-0.708;2024-02-23T04:47:47;98044.99;;;4.66;93.59
55517;BME280;41724;51.176;-0.708;2024-02-23T04:50:14;98046.94;;;4.41;95.27
55517;BME280;41724;51.176;-0.708;2024-02-23T04:52:41;98046.72;;;3.76;98.58
55517;BME280;41724;51.176;-0.708;2024-02-23T04:55:09;98049.03;;;4.38;95.44
55517;BME280;41724;51.176;-0.708;2024-02-23T04:57:37;98049.93;;;4.28;93.28
55517;BME280;41724;51.176;-0.708;2024-02-23T05:00:05;98049.51;;;5.40;92.41
55517;BME280;41724;51.176;-0.708;2024-02-23T05:02:33;98059.84;;;5.21;91.70
55517;BME280;41724;51.176;-0.708;2024-02-23T05:04:59;98064.87;;;4.54;92.18
55517;BME280;41724;51.176;-0.708;2024-02-23T05:07:27;98062.13;;;3.62;95.88
55517;BME280;41724;51.176;-0.708;2024-02-23T05:09:54;98057.60;;;4.25;94.92
55517;BME280;41724;51.176;-0.708;2024-02-23T05:12:21;98052.04;;;3.56;99.02
55517;BME280;41724;51.176;-0.708;2024-02-23T05:14:48;98058.97;;;3.73;97.86
55517;BME280;41724;51.176;-0.708;2024-02-23T05:17:15;98064.50;;;3.64;99.56
55517;BME280;41724;51.176;-0.708;2024-02-23T05:19:43;98059.09;;;3.55;99.55
55517;BME280;41724;51.176;-0.708;2024-02-23T05:22:11;98062.85;;;4.03;97.70
55517;BME280;41724;51.176;-0.708;2024-02-23T05:24:38;98067.42;;;4.23;98.85
55517;BME280;41724;51.176;-0.708;2024-02-23T05:27:05;98072.22;;;4.25;94.98
55517;BME280;41724;51.176;-0.708;2024-02-23T05:29:33;98074.80;;;4.36;93.61
55517;BME280;41724;51.176;-0.708;2024-02-23T05:32:00;98073.97;;;4.52;94.88
55517;BME280;41724;51.176;-0.708;2024-02-23T05:34:27;98075.04;;;3.87;98.37
55517;BME280;41724;51.176;-0.708;2024-02-23T05:36:54;98083.80;;;3.77;96.15
55517;BME280;41724;51.176;-0.708;2024-02-23T05:39:21;98090.10;;;3.89;96.46
55517;BME280;41724;51.176;-0.708;2024-02-23T05:41:48;98083.10;;;4.07;93.42
55517;BME280;41724;51.176;-0.708;2024-02-23T05:44:15;98085.43;;;4.72;92.49
55517;BME280;41724;51.176;-0.708;2024-02-23T05:46:43;98087.85;;;4.40;94.40
55517;BME280;41724;51.176;-0.708;2024-02-23T05:49:10;98091.82;;;4.38;93.36
55517;BME280;41724;51.176;-0.708;2024-02-23T05:51:37;98093.73;;;3.28;99.50
55517;BME280;41724;51.176;-0.708;2024-02-23T05:54:05;98084.31;;;4.35;95.89
55517;BME280;41724;51.176;-0.708;2024-02-23T05:56:32;98082.41;;;3.65;98.33
55517;BME280;41724;51.176;-0.708;2024-02-23T05:59:00;98083.94;;;4.25;95.60
55517;BME280;41724;51.176;-0.708;2024-02-23T06:01:27;98089.27;;;4.68;95.44
55517;BME280;41724;51.176;-0.708;2024-02-23T06:03:54;98085.52;;;3.85;96.02
55517;BME280;41724;51.176;-0.708;2024-02-23T06:06:21;98089.08;;;3.97;95.62
55517;BME280;41724;51.176;-0.708;2024-02-23T06:08:49;98097.50;;;4.25;93.37
55517;BME280;41724;51.176;-0.708;2024-02-23T06:11:16;98103.27;;;4.81;92.00
55517;BME280;41724;51.176;-0.708;2024-02-23T06:13:43;98098.35;;;4.53;92.96
55517;BME280;41724;51.176;-0.708;2024-02-23T06:16:11;98093.38;;;4.73;91.89
55517;BME280;41724;51.176;-0.708;2024-02-23T06:18:38;98098.04;;;5.26;91.95
55517;BME280;41724;51.176;-0.708;2024-02-23T06:21:11;98102.70;;;4.55;93.12
55517;BME280;41724;51.176;-0.708;2024-02-23T06:23:38;98104.59;;;4.50;91.33
55517;BME280;41724;51.176;-0.708;2024-02-23T06:26:05;98094.77;;;4.82;90.89
55517;BME280;41724;51.176;-0.708;2024-02-23T06:28:33;98093.81;;;4.66;90.12
55517;BME280;41724;51.176;-0.708;2024-02-23T06:31:00;98095.88;;;4.37;92.56
55517;BME280;41724;51.176;-0.708;2024-02-23T06:33:27;98101.24;;;4.24;93.49
55517;BME280;41724;51.176;-0.708;2024-02-23T06:35:54;98104.42;;;4.32;93.83
55517;BME280;41724;51.176;-0.708;2024-02-23T06:38:22;98107.34;;;3.89;94.15
55517;BME280;41724;51.176;-0.708;2024-02-23T06:40:48;98110.53;;;4.74;91.26
55517;BME280;41724;51.176;-0.708;2024-02-23T06:43:16;98111.05;;;4.92;90.58
55517;BME280;41724;51.176;-0.708;2024-02-23T06:45:43;98120.47;;;4.13;93.66
55517;BME280;41724;51.176;-0.708;2024-02-23T06:48:10;98125.10;;;4.57;91.57
55517;BME280;41724;51.176;-0.708;2024-02-23T06:50:37;98120.74;;;4.66;90.27
55517;BME280;41724;51.176;-0.708;2024-02-23T06:53:05;98126.65;;;4.60;88.04
55517;BME280;41724;51.176;-0.708;2024-02-23T06:55:34;98132.51;;;4.69;90.45
55517;BME280;41724;51.176;-0.708;2024-02-23T06:58:01;98130.83;;;4.06;93.64
55517;BME280;41724;51.176;-0.708;2024-02-23T07:00:28;98135.69;;;4.09;91.20
55517;BME280;41724;51.176;-0.708;2024-02-23T07:02:56;98133.58;;;5.20;89.49
55517;BME280;41724;51.176;-0.708;2024-02-23T07:05:23;98134.95;;;5.13;87.61
55517;BME280;41724;51.176;-0.708;2024-02-23T07:07:51;98131.40;;;4.58;90.15
55517;BME280;41724;51.176;-0.708;2024-02-23T07:10:18;98137.80;;;4.94;89.07
55517;BME280;41724;51.176;-0.708;2024-02-23T07:12:45;98134.60;;;3.99;90.86
55517;BME280;41724;51.176;-0.708;2024-02-23T07:15:13;98132.97;;;4.00;93.25
55517;BME280;41724;51.176;-0.708;2024-02-23T07:17:41;98134.06;;;4.41;91.45
55517;BME280;41724;51.176;-0.708;2024-02-23T07:20:09;98134.37;;;4.46;89.38
55517;BME280;41724;51.176;-0.708;2024-02-23T07:22:36;98133.11;;;4.71;88.65
55517;BME280;41724;51.176;-0.708;2024-02-23T07:25:05;98126.10;;;4.92;86.20
55517;BME280;41724;51.176;-0.708;2024-02-23T07:27:33;98123.85;;;5.40;85.22
55517;BME280;41724;51.176;-0.708;2024-02-23T07:30:00;98129.24;;;5.57;85.21
55517;BME280;41724;51.176;-0.708;2024-02-23T07:32:27;98128.52;;;5.63;83.80
55517;BME280;41724;51.176;-0.708;2024-02-23T07:34:54;98135.60;;;5.72;81.85
55517;BME280;41724;51.176;-0.708;2024-02-23T07:37:21;98139.91;;;5.90;83.10
55517;BME280;41724;51.176;-0.708;2024-02-23T07:39:49;98147.33;;;6.18;81.43
55517;BME280;41724;51.176;-0.708;2024-02-23T07:42:16;98154.43;;;5.81;81.53
55517;BME280;41724;51.176;-0.708;2024-02-23T07:44:43;98160.26;;;4.74;86.91
55517;BME280;41724;51.176;-0.708;2024-02-23T07:47:11;98158.45;;;6.05;83.07
55517;BME280;41724;51.176;-0.708;2024-02-23T07:49:38;98167.91;;;6.27;80.34
55517;BME280;41724;51.176;-0.708;2024-02-23T07:52:06;98167.23;;;5.97;82.15
55517;BME280;41724;51.176;-0.708;2024-02-23T07:54:33;98171.04;;;6.15;81.73
55517;BME280;41724;51.176;-0.708;2024-02-23T07:57:00;98176.74;;;6.27;81.36
55517;BME280;41724;51.176;-0.708;2024-02-23T07:59:27;98180.71;;;6.09;80.61
55517;BME280;41724;51.176;-0.708;2024-02-23T08:01:55;98181.23;;;5.97;81.27
55517;BME280;41724;51.176;-0.708;2024-02-23T08:04:22;98188.43;;;5.04;84.41
55517;BME280;41724;51.176;-0.708;2024-02-23T08:06:49;98184.77;;;5.86;83.56
55517;BME280;41724;51.176;-0.708;2024-02-23T08:09:16;98186.84;;;6.11;81.70
55517;BME280;41724;51.176;-0.708;2024-02-23T08:11:43;98192.79;;;5.60;82.67
55517;BME280;41724;51.176;-0.708;2024-02-23T08:14:11;98191.29;;;6.22;80.84
55517;BME280;41724;51.176;-0.708;2024-02-23T08:16:38;98193.43;;;6.21;81.91
55517;BME280;41724;51.176;-0.708;2024-02-23T08:19:05;98203.05;;;4.90;84.41
55517;BME280;41724;51.176;-0.708;2024-02-23T08:21:33;98197.74;;;5.21;84.58
55517;BME280;41724;51.176;-0.708;2024-02-23T08:24:00;98198.77;;;5.91;83.60
55517;BME280;41724;51.176;-0.708;2024-02-23T08:26:27;98191.96;;;6.15;82.07
55517;BME280;41724;51.176;-0.708;2024-02-23T08:28:54;98191.46;;;6.74;79.67
55517;BME280;41724;51.176;-0.708;2024-02-23T08:31:22;98196.55;;;6.24;80.82
55517;BME280;41724;51.176;-0.708;2024-02-23T08:33:49;98202.00;;;5.54;82.21
55517;BME280;41724;51.176;-0.708;2024-02-23T08:36:16;98207.22;;;6.36;81.49
55517;BME280;41724;51.176;-0.708;2024-02-23T08:38:43;98202.65;;;6.80;80.06
55517;BME280;41724;51.176;-0.708;2024-02-23T08:41:10;98206.41;;;6.72;77.87
55517;BME280;41724;51.176;-0.708;2024-02-23T08:43:38;98206.10;;;6.95;77.19
55517;BME280;41724;51.176;-0.708;2024-02-23T08:46:05;98210.00;;;6.98;76.22
55517;BME280;41724;51.176;-0.708;2024-02-23T08:48:33;98217.42;;;7.08;77.05
55517;BME280;41724;51.176;-0.708;2024-02-23T08:50:59;98218.69;;;5.89;81.62
55517;BME280;41724;51.176;-0.708;2024-02-23T08:53:27;98217.79;;;6.91;77.80
55517;BME280;41724;51.176;-0.708;2024-02-23T08:55:54;98219.58;;;6.88;78.32
55517;BME280;41724;51.176;-0.708;2024-02-23T08:58:21;98225.42;;;6.77;77.88
55517;BME280;41724;51.176;-0.708;2024-02-23T09:00:48;98224.01;;;7.12;77.87
55517;BME280;41724;51.176;-0.708;2024-02-23T09:03:16;98226.89;;;6.67;79.20
55517;BME280;41724;51.176;-0.708;2024-02-23T09:05:43;98227.64;;;6.73;77.45
55517;BME280;41724;51.176;-0.708;2024-02-23T09:08:10;98236.09;;;6.82;78.47
55517;BME280;41724;51.176;-0.708;2024-02-23T09:10:38;98239.11;;;7.19;77.21
55517;BME280;41724;51.176;-0.708;2024-02-23T09:13:05;98240.43;;;6.15;81.99
55517;BME280;41724;51.176;-0.708;2024-02-23T09:15:33;98236.59;;;6.41;81.59
55517;BME280;41724;51.176;-0.708;2024-02-23T09:17:59;98238.00;;;6.57;81.70
55517;BME280;41724;51.176;-0.708;2024-02-23T09:20:27;98238.20;;;6.58;80.83
55517;BME280;41724;51.176;-0.708;2024-02-23T09:22:54;98239.90;;;7.61;77.79
55517;BME280;41724;51.176;-0.708;2024-02-23T09:25:21;98241.11;;;7.27;76.33
55517;BME280;41724;51.176;-0.708;2024-02-23T09:27:48;98231.49;;;6.72;78.01
55517;BME280;41724;51.176;-0.708;2024-02-23T09:30:16;98237.79;;;6.87;77.88
55517;BME280;41724;51.176;-0.708;2024-02-23T09:32:43;98233.34;;;6.34;78.13
55517;BME280;41724;51.176;-0.708;2024-02-23T09:35:10;98235.66;;;7.34;77.01
55517;BME280;41724;51.176;-0.708;2024-02-23T09:37:37;98228.84;;;6.75;77.71
55517;BME280;41724;51.176;-0.708;2024-02-23T09:40:06;98232.35;;;7.00;79.00
55517;BME280;41724;51.176;-0.708;2024-02-23T09:42:34;98233.69;;;5.98;82.56
55517;BME280;41724;51.176;-0.708;2024-02-23T09:45:03;98226.52;;;6.73;82.63
55517;BME280;41724;51.176;-0.708;2024-02-23T09:47:33;98217.83;;;6.24;82.04
55517;BME280;41724;51.176;-0.708;2024-02-23T09:50:04;98222.70;;;6.24;83.10
55517;BME280;41724;51.176;-0.708;2024-02-23T09:52:32;98220.92;;;6.58;83.08
55517;BME280;41724;51.176;-0.708;2024-02-23T09:55:00;98218.43;;;6.31;83.92
55517;BME280;41724;51.176;-0.708;2024-02-23T09:57:27;98232.32;;;5.17;87.26
55517;BME280;41724;51.176;-0.708;2024-02-23T09:59:55;98239.51;;;5.45;88.15
55517;BME280;41724;51.176;-0.708;2024-02-23T10:02:22;98238.61;;;5.54;89.58
55517;BME280;41724;51.176;-0.708;2024-02-23T10:04:50;98235.09;;;6.42;85.98
55517;BME280;41724;51.176;-0.708;2024-02-23T10:07:18;98235.87;;;6.19;81.86
55517;BME280;41724;51.176;-0.708;2024-02-23T10:09:44;98244.62;;;7.11;81.72
55517;BME280;41724;51.176;-0.708;2024-02-23T10:12:12;98248.77;;;6.32;84.69
55517;BME280;41724;51.176;-0.708;2024-02-23T10:14:46;98248.31;;;7.05;81.58
55517;BME280;41724;51.176;-0.708;2024-02-23T10:17:12;98246.62;;;6.89;78.19
55517;BME280;41724;51.176;-0.708;2024-02-23T10:19:40;98242.01;;;7.04;77.49
55517;BME280;41724;51.176;-0.708;2024-02-23T10:22:07;98246.63;;;6.77;78.40
55517;BME280;41724;51.176;-0.708;2024-02-23T10:24:34;98247.25;;;8.14;74.84
55517;BME280;41724;51.176;-0.708;2024-02-23T10:27:03;98247.49;;;7.69;73.41
55517;BME280;41724;51.176;-0.708;2024-02-23T10:29:31;98237.55;;;8.11;71.48
55517;BME280;41724;51.176;-0.708;2024-02-23T10:31:58;98241.91;;;8.28;74.11
55517;BME280;41724;51.176;-0.708;2024-02-23T10:34:27;98242.01;;;7.17;73.42
55517;BME280;41724;51.176;-0.708;2024-02-23T10:36:56;98239.67;;;8.05;71.99
55517;BME280;41724;51.176;-0.708;2024-02-23T10:39:24;98236.37;;;8.35;71.22
55517;BME280;41724;51.176;-0.708;2024-02-23T10:41:57;98237.19;;;8.42;73.58
55517;BME280;41724;51.176;-0.708;2024-02-23T10:44:28;98243.14;;;7.96;72.46
55517;BME280;41724;51.176;-0.708;2024-02-23T10:46:56;98245.93;;;8.33;71.72
55517;BME280;41724;51.176;-0.708;2024-02-23T10:49:25;98253.85;;;8.09;74.02
55517;BME280;41724;51.176;-0.708;2024-02-23T10:51:53;98263.02;;;7.11;74.28
55517;BME280;41724;51.176;-0.708;2024-02-23T10:54:21;98252.00;;;6.80;77.22
55517;BME280;41724;51.176;-0.708;2024-02-23T10:56:50;98253.15;;;7.02;77.60
55517;BME280;41724;51.176;-0.708;2024-02-23T10:59:18;98254.79;;;8.19;75.42
55517;BME280;41724;51.176;-0.708;2024-02-23T11:01:48;98251.76;;;7.61;73.92
55517;BME280;41724;51.176;-0.708;2024-02-23T11:04:16;98253.04;;;8.53;73.54
55517;BME280;41724;51.176;-0.708;2024-02-23T11:06:49;98256.36;;;8.73;71.74
55517;BME280;41724;51.176;-0.708;2024-02-23T11:09:20;98253.77;;;9.63;70.92
55517;BME280;41724;51.176;-0.708;2024-02-23T11:11:53;98263.45;;;9.04;70.52
55517;BME280;41724;51.176;-0.708;2024-02-23T11:14:29;98260.58;;;9.17;69.23
55517;BME280;41724;51.176;-0.708;2024-02-23T11:16:57;98263.90;;;8.97;68.16
55517;BME280;41724;51.176;-0.708;2024-02-23T11:19:33;98262.92;;;9.18;68.46
55517;BME280;41724;51.176;-0.708;2024-02-23T11:22:01;98266.15;;;9.90;68.41
55517;BME280;41724;51.176;-0.708;2024-02-23T11:24:29;98262.06;;;9.37;63.33
55517;BME280;41724;51.176;-0.708;2024-02-23T11:26:57;98261.83;;;9.92;63.97
55517;BME280;41724;51.176;-0.708;2024-02-23T11:29:26;98262.04;;;9.82;63.38
55517;BME280;41724;51.176;-0.708;2024-02-23T11:31:55;98261.72;;;9.69;63.45
55517;BME280;41724;51.176;-0.708;2024-02-23T11:34:23;98262.23;;;10.63;62.28
55517;BME280;41724;51.176;-0.708;2024-02-23T11:36:51;98261.71;;;9.94;61.03
55517;BME280;41724;51.176;-0.708;2024-02-23T11:39:18;98263.18;;;9.91;61.68
55517;BME280;41724;51.176;-0.708;2024-02-23T11:41:48;98258.56;;;10.13;62.15
55517;BME280;41724;51.176;-0.708;2024-02-23T11:44:16;98253.83;;;10.41;60.85
55517;BME280;41724;51.176;-0.708;2024-02-23T11:46:43;98252.09;;;10.44;61.18
55517;BME280;41724;51.176;-0.708;2024-02-23T11:49:11;98249.83;;;10.20;62.61
55517;BME280;41724;51.176;-0.708;2024-02-23T11:51:38;98249.06;;;10.52;61.06
55517;BME280;41724;51.176;-0.708;2024-02-23T11:54:05;98246.96;;;10.07;62.31
55517;BME280;41724;51.176;-0.708;2024-02-23T11:56:33;98249.31;;;8.75;63.76
55517;BME280;41724;51.176;-0.708;2024-02-23T11:59:01;98246.02;;;8.93;63.56
55517;BME280;41724;51.176;-0.708;2024-02-23T12:01:29;98243.41;;;9.59;64.12
55517;BME280;41724;51.176;-0.708;2024-02-23T12:03:56;98242.16;;;9.72;62.66
55517;BME280;41724;51.176;-0.708;2024-02-23T12:06:23;98241.42;;;11.29;61.15
55517;BME280;41724;51.176;-0.708;2024-02-23T12:08:51;98237.14;;;12.14;59.47
55517;BME280;41724;51.176;-0.708;2024-02-23T12:11:18;98239.29;;;10.84;59.58
55517;BME280;41724;51.176;-0.708;2024-02-23T12:13:46;98248.24;;;10.21;59.35
55517;BME280;41724;51.176;-0.708;2024-02-23T12:16:14;98233.92;;;10.63;62.08
55517;BME280;41724;51.176;-0.708;2024-02-23T12:18:42;98232.64;;;11.58;59.94
55517;BME280;41724;51.176;-0.708;2024-02-23T12:21:09;98222.81;;;11.89;58.07
55517;BME280;41724;51.176;-0.708;2024-02-23T12:23:44;98230.41;;;10.51;57.13
55517;BME280;41724;51.176;-0.708;2024-02-23T12:26:13;98234.60;;;9.86;56.86
55517;BME280;41724;51.176;-0.708;2024-02-23T12:28:40;98240.71;;;10.28;56.84
55517;BME280;41724;51.176;-0.708;2024-02-23T12:31:08;98229.97;;;9.77;60.08
55517;BME280;41724;51.176;-0.708;2024-02-23T12:33:36;98223.75;;;9.58;60.28
55517;BME280;41724;51.176;-0.708;2024-02-23T12:36:05;98218.76;;;9.27;61.09
55517;BME280;41724;51.176;-0.708;2024-02-23T12:38:33;98220.42;;;9.39;60.98
55517;BME280;41724;51.176;-0.708;2024-02-23T12:41:02;98217.98;;;10.67;60.72
55517;BME280;41724;51.176;-0.708;2024-02-23T12:43:30;98215.53;;;10.22;58.82
55517;BME280;41724;51.176;-0.708;2024-02-23T12:45:57;98211.77;;;10.38;60.93
55517;BME280;41724;51.176;-0.708;2024-02-23T12:48:24;98209.21;;;9.21;60.20
55517;BME280;41724;51.176;-0.708;2024-02-23T12:50:52;98207.13;;;9.93;57.56
55517;BME280;41724;51.176;-0.708;2024-02-23T12:53:36;98204.44;;;10.75;55.37
55517;BME280;41724;51.176;-0.708;2024-02-23T12:56:04;98208.07;;;10.32;58.17
55517;BME280;41724;51.176;-0.708;2024-02-23T12:58:32;98205.43;;;9.52;58.31
55517;BME280;41724;51.176;-0.708;2024-02-23T13:01:00;98204.56;;;9.05;60.71